Surface Preassure
0:00 UTC
12:00 UTC (Click for larger versions)
Andrewsfield Outlook

Current time:


  03:09:25am (GMT)      03:09:25am (UTC)


Headline: Breezy and mostly cloudy, though improving.

Today: A mostly cloudy start with a few outbreaks of rain over the hills, though improving with sunny spells developing to the east, particularly during the afternoon. Breezy at first but winds easing gradually, feeling warm in any sunshine. Maximum Temperature 20C.

Tonight: Largely dry and clear but breezy with cloudier conditions and perhaps the odd spot of rain over the Yorkshire Dales. Feeling mild. Minimum Temperature 10C.

Thursday: A dry and mostly sunny morning but becoming breezy with patchy rain moving southwards across the region during the afternoon. Bright and dry with lighter winds later on. Maximum Temperature 17C.

Outlook for Friday to Sunday: Cool but largely sunny Friday. Cloudier and windier Saturday, with possible rain in the evening. Sunny but feeling cold in the breeze Sunday, perhaps a shower.

Forecast

Weather warnings

Nearby METAR/TAF

Stansted (EGSS)


Current conditions: VFR

METAR: EGSS 260250Z AUTO 22004KT 9999 NCD 06/04 Q1033

TAF: TAF EGSS 252301Z 2600/2706 20006KT 9999 FEW045 PROB30 2601/2608 8000 PROB40 2702/2706 3000 BR

Southend (EGMC)


Current conditions: VFR

METAR: EGMC 260250Z 22003KT CAVOK 06/04 Q1033

TAF: TAF EGMC 260154Z 2603/2612 23003KT CAVOK PROB30 2603/2608 8000

RAF Wattisham (EGUW)


Current conditions: VFR

METAR: EGUW 260250Z 21007KT CAVOK 08/06 Q1032 BLU

TAF: